Planet Ace — 3EYF9 — position and weather

sailwx.info

Track history (hours):
 
Tides and Currents Weather Stations Pressure Air Temp Water Temp Dewpoint Dewpoint Depression Visibility Wind Speed Wind Dir Waves Ship Positions

Planet Ace

Last reported at 2016-Jul-01 22:26 UTC. Time now 2016-Jul-01 22:44 UTC.
Position N 39°08' E 025°18'.

Length 188 m; beam 28.2 m.

Type: Cargo ship. MMSI: 352168000.

Date/timePositionNaut miles runAvg speedWind from/ knotsBaromVisibWave heightAir tempDewpointWater temp
2016-Jul-01 22:26N 39°08' E 025°18'3415.2
2016-Jul-01 20:11N 39°38' E 025°37'1015.1
2016-Jul-01 19:30N 39°48' E 025°43'  
2016-Jun-27 20:27N 39°50' E 025°51'17514.7
2016-Jun-27 08:33N 37°14' E 024°10'3014.8
2016-Jun-27 06:33N 36°50' E 023°47'1615.2
2016-Jun-27 05:31N 36°37' E 023°37'1414.8
2016-Jun-27 04:33N 36°25' E 023°26'34914.0
2016-Jun-26 03:32N 37°38' E 016°19'1414.5
2016-Jun-26 02:34N 37°43' E 016°02'1413.9
2016-Jun-26 01:33N 37°47' E 015°45'1414.3
2016-Jun-26 00:33N 37°58' E 015°34'1514.9
2016-Jun-25 23:33N 38°13' E 015°36'1414.4
2016-Jun-25 22:33N 38°27' E 015°37'1515.4
2016-Jun-25 21:33N 38°42' E 015°30'1715.8
2016-Jun-25 20:30N 38°57' E 015°23'8714.6
2016-Jun-25 14:34N 40°03' E 014°10'1514.8
2016-Jun-25 13:34N 40°10' E 013°53'1514.6
2016-Jun-25 12:34N 40°17' E 013°36'1614.9
2016-Jun-25 11:31N 40°23' E 013°17'2114.9
2016-Jun-25 10:06N 40°33' E 012°53'815.1
2016-Jun-25 09:33N 40°37' E 012°43'1514.9
2016-Jun-25 08:33N 40°45' E 012°27'6215.6
2016-Jun-25 04:33N 41°22' E 011°20'3315.3
2016-Jun-25 02:24N 41°43' E 010°46'6914.0
2016-Jun-24 21:29N 42°39' E 009°52'1415.2
2016-Jun-24 20:33N 42°53' E 009°57'1615.5
2016-Jun-24 19:34N 43°07' E 010°03'1615.6
2016-Jun-24 18:33N 43°23' E 010°08'1211.7
2016-Jun-24 17:33N 43°32' E 010°17'2 2.4
2016-Jun-24 16:32N 43°35' E 010°18'0 0.0
2016-Jun-24 15:32N 43°35' E 010°18'0 0.0
2016-Jun-24 14:32N 43°35' E 010°18'0 0.0
2016-Jun-24 13:32N 43°35' E 010°18'0 0.0
2016-Jun-24 12:32N 43°35' E 010°18'0 0.0
2016-Jun-24 11:32N 43°35' E 010°18'0 0.0
2016-Jun-24 10:32N 43°35' E 010°18'0 0.0
2016-Jun-24 09:32N 43°35' E 010°18'0 0.0
2016-Jun-24 08:32N 43°35' E 010°18'0 0.0
2016-Jun-24 07:32N 43°35' E 010°18'0 0.0
2016-Jun-24 04:32N 43°35' E 010°18'0 0.0
2016-Jun-24 03:32N 43°35' E 010°18'0 0.0
2016-Jun-24 02:31N 43°35' E 010°18'0 0.0
2016-Jun-24 01:32N 43°35' E 010°18'0 0.0
2016-Jun-24 00:32N 43°35' E 010°18'0 0.0
2016-Jun-23 23:31N 43°35' E 010°18'0 0.0
2016-Jun-23 22:32N 43°35' E 010°18'0 0.0
2016-Jun-23 21:32N 43°35' E 010°18'0 0.0
2016-Jun-23 20:28N 43°35' E 010°18'0 0.0
2016-Jun-23 19:31N 43°35' E 010°18'0 0.0
2016-Jun-23 18:31N 43°35' E 010°18'0 0.0
2016-Jun-23 17:31N 43°35' E 010°18'0 0.0
2016-Jun-23 16:31N 43°35' E 010°18'0 0.0
2016-Jun-23 15:31N 43°35' E 010°18'0 0.0
2016-Jun-23 14:31N 43°35' E 010°18'0 0.0
2016-Jun-23 13:31N 43°35' E 010°18'0 0.0
2016-Jun-23 12:31N 43°35' E 010°18'0 0.0
2016-Jun-23 11:31N 43°35' E 010°18'0 0.0
2016-Jun-23 10:31N 43°35' E 010°18'0 0.0
2016-Jun-23 09:31N 43°35' E 010°18'0 0.0
2016-Jun-23 08:31N 43°35' E 010°18'0 0.0
2016-Jun-23 07:31N 43°35' E 010°18'0 0.0
2016-Jun-23 05:31N 43°35' E 010°18'0 0.0
2016-Jun-23 04:31N 43°35' E 010°18'0 0.0
2016-Jun-23 03:31N 43°35' E 010°18'0 0.0
2016-Jun-23 02:31N 43°35' E 010°18'0 0.0
2016-Jun-23 01:31N 43°35' E 010°18'0 0.0
2016-Jun-23 00:31N 43°35' E 010°18'0 0.0
2016-Jun-22 23:31N 43°35' E 010°18'0 0.0
2016-Jun-22 22:31N 43°35' E 010°18'0 0.0
2016-Jun-22 21:31N 43°35' E 010°18'0 0.0
2016-Jun-22 20:31N 43°35' E 010°18'0 0.0
2016-Jun-22 19:31N 43°35' E 010°18'0 0.0
2016-Jun-22 18:31N 43°35' E 010°18'4 4.7
2016-Jun-22 17:33N 43°31' E 010°15'5 4.6
2016-Jun-22 16:33N 43°27' E 010°11'1 1.5
2016-Jun-22 15:33N 43°26' E 010°10'7 7.4
2016-Jun-22 14:33N 43°21' E 010°03'1414.5
2016-Jun-22 13:33N 43°15' E 009°45'1414.5
2016-Jun-22 12:33N 43°10' E 009°26'1414.2
2016-Jun-22 11:33N 43°06' E 009°07'1514.8
2016-Jun-22 10:33N 43°01' E 008°48'1514.6
2016-Jun-22 09:33N 42°56' E 008°30'1414.3
2016-Jun-22 08:33N 42°51' E 008°11'1514.6
2016-Jun-22 07:33N 42°46' E 007°53'1515.0
2016-Jun-22 06:34N 42°41' E 007°33'1615.5
2016-Jun-22 05:33N 42°36' E 007°13'1514.8
2016-Jun-22 04:33N 42°31' E 006°54'1514.6
2016-Jun-22 03:33N 42°27' E 006°35'1514.6
2016-Jun-22 02:33N 42°21' E 006°17'2114.6
2016-Jun-22 01:06N 42°14' E 005°50'814.5
2016-Jun-22 00:33N 42°12' E 005°40'1514.9
2016-Jun-21 23:33N 42°07' E 005°21'1514.8
2016-Jun-21 22:33N 42°02' E 005°02'  
Track history (hours):
 
Tides and Currents Weather Stations Pressure Air Temp Water Temp Dewpoint Dewpoint Depression Visibility Wind Speed Wind Dir Waves Ship Positions

Planet Ace

Last reported at 2016-Jul-01 22:26 UTC. Time now 2016-Jul-01 22:44 UTC.
Position N 39°08' E 025°18'.

Length 188 m; beam 28.2 m.

Type: Cargo ship. MMSI: 352168000.

Date/timePositionNaut miles runAvg speedWind from/ knotsBaromVisibWave heightAir tempDewpointWater temp
2016-Jul-01 22:26N 39°08' E 025°18'3415.2
2016-Jul-01 20:11N 39°38' E 025°37'1015.1
2016-Jul-01 19:30N 39°48' E 025°43'  
2016-Jun-27 20:27N 39°50' E 025°51'17514.7
2016-Jun-27 08:33N 37°14' E 024°10'3014.8
2016-Jun-27 06:33N 36°50' E 023°47'1615.2
2016-Jun-27 05:31N 36°37' E 023°37'1414.8
2016-Jun-27 04:33N 36°25' E 023°26'34914.0
2016-Jun-26 03:32N 37°38' E 016°19'1414.5
2016-Jun-26 02:34N 37°43' E 016°02'1413.9
2016-Jun-26 01:33N 37°47' E 015°45'1414.3
2016-Jun-26 00:33N 37°58' E 015°34'1514.9
2016-Jun-25 23:33N 38°13' E 015°36'1414.4
2016-Jun-25 22:33N 38°27' E 015°37'1515.4
2016-Jun-25 21:33N 38°42' E 015°30'1715.8
2016-Jun-25 20:30N 38°57' E 015°23'8714.6
2016-Jun-25 14:34N 40°03' E 014°10'1514.8
2016-Jun-25 13:34N 40°10' E 013°53'1514.6
2016-Jun-25 12:34N 40°17' E 013°36'1614.9
2016-Jun-25 11:31N 40°23' E 013°17'2114.9
2016-Jun-25 10:06N 40°33' E 012°53'815.1
2016-Jun-25 09:33N 40°37' E 012°43'1514.9
2016-Jun-25 08:33N 40°45' E 012°27'6215.6
2016-Jun-25 04:33N 41°22' E 011°20'3315.3
2016-Jun-25 02:24N 41°43' E 010°46'6914.0
2016-Jun-24 21:29N 42°39' E 009°52'1415.2
2016-Jun-24 20:33N 42°53' E 009°57'1615.5
2016-Jun-24 19:34N 43°07' E 010°03'1615.6
2016-Jun-24 18:33N 43°23' E 010°08'1211.7
2016-Jun-24 17:33N 43°32' E 010°17'2 2.4
2016-Jun-24 16:32N 43°35' E 010°18'0 0.0
2016-Jun-24 15:32N 43°35' E 010°18'0 0.0
2016-Jun-24 14:32N 43°35' E 010°18'0 0.0
2016-Jun-24 13:32N 43°35' E 010°18'0 0.0
2016-Jun-24 12:32N 43°35' E 010°18'0 0.0
2016-Jun-24 11:32N 43°35' E 010°18'0 0.0
2016-Jun-24 10:32N 43°35' E 010°18'0 0.0
2016-Jun-24 09:32N 43°35' E 010°18'0 0.0
2016-Jun-24 08:32N 43°35' E 010°18'0 0.0
2016-Jun-24 07:32N 43°35' E 010°18'0 0.0
2016-Jun-24 04:32N 43°35' E 010°18'0 0.0
2016-Jun-24 03:32N 43°35' E 010°18'0 0.0
2016-Jun-24 02:31N 43°35' E 010°18'0 0.0
2016-Jun-24 01:32N 43°35' E 010°18'0 0.0
2016-Jun-24 00:32N 43°35' E 010°18'0 0.0
2016-Jun-23 23:31N 43°35' E 010°18'0 0.0
2016-Jun-23 22:32N 43°35' E 010°18'0 0.0
2016-Jun-23 21:32N 43°35' E 010°18'0 0.0
2016-Jun-23 20:28N 43°35' E 010°18'0 0.0
2016-Jun-23 19:31N 43°35' E 010°18'0 0.0
2016-Jun-23 18:31N 43°35' E 010°18'0 0.0
2016-Jun-23 17:31N 43°35' E 010°18'0 0.0
2016-Jun-23 16:31N 43°35' E 010°18'0 0.0
2016-Jun-23 15:31N 43°35' E 010°18'0 0.0
2016-Jun-23 14:31N 43°35' E 010°18'0 0.0
2016-Jun-23 13:31N 43°35' E 010°18'0 0.0
2016-Jun-23 12:31N 43°35' E 010°18'0 0.0
2016-Jun-23 11:31N 43°35' E 010°18'0 0.0
2016-Jun-23 10:31N 43°35' E 010°18'0 0.0
2016-Jun-23 09:31N 43°35' E 010°18'0 0.0
2016-Jun-23 08:31N 43°35' E 010°18'0 0.0
2016-Jun-23 07:31N 43°35' E 010°18'0 0.0
2016-Jun-23 05:31N 43°35' E 010°18'0 0.0
2016-Jun-23 04:31N 43°35' E 010°18'0 0.0
2016-Jun-23 03:31N 43°35' E 010°18'0 0.0
2016-Jun-23 02:31N 43°35' E 010°18'0 0.0
2016-Jun-23 01:31N 43°35' E 010°18'0 0.0
2016-Jun-23 00:31N 43°35' E 010°18'0 0.0
2016-Jun-22 23:31N 43°35' E 010°18'0 0.0
2016-Jun-22 22:31N 43°35' E 010°18'0 0.0
2016-Jun-22 21:31N 43°35' E 010°18'0 0.0
2016-Jun-22 20:31N 43°35' E 010°18'0 0.0
2016-Jun-22 19:31N 43°35' E 010°18'0 0.0
2016-Jun-22 18:31N 43°35' E 010°18'4 4.7
2016-Jun-22 17:33N 43°31' E 010°15'5 4.6
2016-Jun-22 16:33N 43°27' E 010°11'1 1.5
2016-Jun-22 15:33N 43°26' E 010°10'7 7.4
2016-Jun-22 14:33N 43°21' E 010°03'1414.5
2016-Jun-22 13:33N 43°15' E 009°45'1414.5
2016-Jun-22 12:33N 43°10' E 009°26'1414.2
2016-Jun-22 11:33N 43°06' E 009°07'1514.8
2016-Jun-22 10:33N 43°01' E 008°48'1514.6
2016-Jun-22 09:33N 42°56' E 008°30'1414.3
2016-Jun-22 08:33N 42°51' E 008°11'1514.6
2016-Jun-22 07:33N 42°46' E 007°53'1515.0
2016-Jun-22 06:34N 42°41' E 007°33'1615.5
2016-Jun-22 05:33N 42°36' E 007°13'1514.8
2016-Jun-22 04:33N 42°31' E 006°54'1514.6
2016-Jun-22 03:33N 42°27' E 006°35'1514.6
2016-Jun-22 02:33N 42°21' E 006°17'2114.6
2016-Jun-22 01:06N 42°14' E 005°50'814.5
2016-Jun-22 00:33N 42°12' E 005°40'1514.9
2016-Jun-21 23:33N 42°07' E 005°21'1514.8
2016-Jun-21 22:33N 42°02' E 005°02'  

Dump ship's entire track history